Time;durP1;ratioP1;P1;durP2;ratioP2;P2;SDS_P1;SDS_P2;PMS_P1;PMS_P2;Temp;Humidity;BMP_temperature;BMP_pressure;BME280_temperature;BME280_humidity;BME280_pressure;Samples;Min_cycle;Max_cycle;Signal;HPM_P1;HPM_P2
2021/06/08 00:01:17;;;;;;;8.33;7.03;;;;;;;30.27;59.11;100863.03;5074979;27;65521;-39
2021/06/08 00:03:49;;;;;;;14.18;7.20;;;;;;;30.32;60.20;100861.59;5071292;28;69961;-39
2021/06/08 00:06:21;;;;;;;12.80;7.82;;;;;;;30.28;59.69;100856.59;5073403;27;66013;-40
2021/06/08 00:08:52;;;;;;;;;;;;;;;30.19;62.71;100862.44;5074161;28;69827;-38
2021/06/08 00:11:24;;;;;;;18.10;8.75;;;;;;;30.41;59.94;100860.28;5077448;27;66594;-39
2021/06/08 00:13:57;;;;;;;11.52;9.23;;;;;;;30.43;60.59;100858.19;5075690;27;69291;-39
2021/06/08 00:16:29;;;;;;;19.08;9.77;;;;;;;30.51;60.00;100871.47;5072716;28;66216;-40
2021/06/08 00:19:01;;;;;;;26.55;9.60;;;;;;;30.55;60.34;100872.66;5075267;27;69305;-39
2021/06/08 00:21:34;;;;;;;14.90;8.65;;;;;;;30.57;60.50;100876.00;5077957;27;65295;-39
2021/06/08 00:24:06;;;;;;;22.73;7.78;;;;;;;30.59;60.93;100878.47;5075413;27;70314;-42
2021/06/08 00:26:37;;;;;;;18.88;8.85;;;;;;;30.60;61.67;100880.97;5071014;28;65937;-38
2021/06/08 00:29:09;;;;;;;18.75;8.00;;;;;;;30.62;61.86;100876.16;5072847;28;70115;-38
2021/06/08 00:31:40;;;;;;;19.38;8.20;;;;;;;30.65;61.97;100878.44;5074539;28;66307;-40
2021/06/08 00:34:12;;;;;;;12.38;7.40;;;;;;;30.63;62.70;100883.22;5072415;28;70030;-37
2021/06/08 00:36:44;;;;;;;29.90;9.48;;;;;;;30.63;62.70;100875.13;5075523;28;66072;-38
2021/06/08 00:39:15;;;;;;;18.92;8.75;;;;;;;30.69;62.87;100885.06;5075158;27;69570;-39
2021/06/08 00:41:47;;;;;;;15.93;8.75;;;;;;;30.71;63.31;100885.69;5078104;28;66436;-37
2021/06/08 00:44:18;;;;;;;15.25;8.55;;;;;;;30.77;62.61;100883.97;5072298;28;68690;-38
2021/06/08 00:46:50;;;;;;;16.80;9.93;;;;;;;30.80;62.38;100878.16;5077965;28;66006;-38
2021/06/08 00:49:26;;;;;;;32.08;14.20;;;;;;;30.86;63.03;100889.97;5076958;27;69960;-39
2021/06/08 00:51:58;;;;;;;22.08;12.18;;;;;;;30.83;62.97;100876.88;5077530;27;65408;-38
2021/06/08 00:54:30;;;;;;;17.13;11.02;;;;;;;30.92;63.32;100895.34;5075636;27;68677;-38
2021/06/08 00:57:01;;;;;;;;;;;;;;;30.72;65.60;100898.16;5064777;27;65937;-38
2021/06/08 00:59:33;;;;;;;14.75;8.93;;;;;;;30.93;63.00;100897.00;5065807;28;69267;-38
2021/06/08 01:02:05;;;;;;;22.33;9.30;;;;;;;30.94;62.94;100893.25;5073809;27;65049;-37
2021/06/08 01:04:36;;;;;;;15.95;7.63;;;;;;;31.03;62.94;100903.81;5067228;28;69789;-38
2021/06/08 01:07:08;;;;;;;12.32;7.68;;;;;;;31.05;62.91;100897.13;5072199;27;65809;-38
2021/06/08 01:09:40;;;;;;;16.33;7.85;;;;;;;31.11;63.15;100908.94;5074727;28;69584;-39
2021/06/08 01:12:11;;;;;;;10.32;7.78;;;;;;;31.09;63.57;100901.06;5064992;28;65629;-38
2021/06/08 01:14:43;;;;;;;15.38;7.32;;;;;;;31.14;63.30;100909.31;5065956;27;69870;-39
2021/06/08 01:17:18;;;;;;;21.00;7.45;;;;;;;31.21;63.13;100919.31;5066550;28;66102;-38
2021/06/08 01:19:54;;;;;;;;;;;;;;;31.01;64.95;100935.69;5062668;28;70119;-38
2021/06/08 01:22:30;;;;;;;9.68;5.82;;;;;;;30.93;62.82;100912.44;5065059;27;66883;-39
2021/06/08 01:25:04;;;;;;;11.10;4.60;;;;;;;31.11;61.63;100950.41;5072053;28;70183;-38
2021/06/08 01:27:36;;;;;;;5.28;4.20;;;;;;;31.14;61.17;100982.47;5090130;27;66022;-43
2021/06/08 01:30:09;;;;;;;8.95;4.57;;;;;;;31.09;61.18;100987.75;5067417;28;70690;-42
2021/06/08 01:32:47;;;;;;;11.57;4.97;;;;;;;31.00;60.47;100977.38;5070663;27;65577;-43
2021/06/08 01:35:20;;;;;;;8.13;4.05;;;;;;;30.87;60.48;100994.53;5068005;28;69199;-44
2021/06/08 01:37:52;;;;;;;5.13;3.53;;;;;;;30.81;60.77;100996.25;5073232;28;66698;-43
2021/06/08 01:40:24;;;;;;;10.55;3.83;;;;;;;30.69;60.27;100987.94;5068901;28;69047;-44
2021/06/08 01:42:55;;;;;;;;;;;;;;;30.36;62.31;101008.94;5073361;27;66313;-45
2021/06/08 01:45:27;;;;;;;7.38;3.50;;;;;;;30.50;62.20;101016.78;5068607;28;69819;-44
2021/06/08 01:47:59;;;;;;;5.38;3.75;;;;;;;30.50;62.85;101013.25;5072342;28;66209;-45
2021/06/08 01:50:31;;;;;;;6.75;3.80;;;;;;;30.48;62.44;100999.13;5071711;28;69333;-44
2021/06/08 01:53:18;;;;;;;8.60;3.35;;;;;;;30.01;64.05;100944.31;5055416;28;65333;-47
2021/06/08 01:55:56;;;;;;;12.65;3.45;;;;;;;30.49;64.15;101022.41;5068618;28;70144;-44
2021/06/08 01:58:41;;;;;;;6.70;3.55;;;;;;;30.58;65.03;101031.13;5065717;28;66079;-42
2021/06/08 02:01:16;;;;;;;10.65;4.68;;;;;;;30.31;64.65;100951.91;5070094;28;69907;-42
2021/06/08 02:04:26;;;;;;;15.57;4.65;;;;;;;30.57;65.94;101005.13;5070653;27;65990;-41
2021/06/08 02:07:28;;;;;;;11.23;3.95;;;;;;;30.35;65.31;100959.41;5054586;28;69438;-40
2021/06/08 02:10:22;;;;;;;5.10;4.13;;;;;;;30.37;65.14;100975.41;5073647;28;65252;-39
2021/06/08 02:13:15;;;;;;;8.43;4.55;;;;;;;30.67;65.53;101037.94;5070788;28;70330;-39
2021/06/08 02:15:56;;;;;;;;;;;;;;;30.55;66.92;101056.75;5071242;28;65613;-39
2021/06/08 02:18:31;;;;;;;15.30;4.95;;;;;;;30.38;65.48;101004.16;5069131;28;69975;-38
2021/06/08 02:21:06;;;;;;;5.88;4.60;;;;;;;30.76;65.20;101052.06;5068978;28;65719;-40
2021/06/08 02:23:39;;;;;;;6.53;4.43;;;;;;;30.75;66.19;101045.00;5066828;28;69747;-39
2021/06/08 02:26:12;;;;;;;4.75;4.35;;;;;;;30.22;65.68;100956.72;5074478;28;65293;-39
2021/06/08 02:28:45;;;;;;;8.38;4.35;;;;;;;30.79;65.94;101057.09;5066928;27;70230;-38
2021/06/08 02:31:19;;;;;;;8.50;4.40;;;;;;;30.60;66.40;101016.34;5072086;28;65732;-38
2021/06/08 02:33:53;;;;;;;4.30;3.90;;;;;;;30.90;65.64;101064.56;5071367;28;69152;-38
2021/06/08 02:36:25;;;;;;;8.13;4.53;;;;;;;30.90;66.41;101064.56;5068432;28;65612;-39
2021/06/08 02:38:57;;;;;;;;;;;;;;;30.69;67.35;101074.59;5069400;27;71497;-40
2021/06/08 02:41:29;;;;;;;8.25;3.90;;;;;;;30.83;66.32;101069.16;5065015;28;66193;-40
2021/06/08 02:44:02;;;;;;;5.38;3.50;;;;;;;30.89;66.45;101079.97;5069151;28;69751;-41
2021/06/08 02:46:35;;;;;;;7.82;3.88;;;;;;;30.90;66.72;101078.09;5070091;28;66174;-41
2021/06/08 02:49:08;;;;;;;3.88;3.40;;;;;;;30.89;66.84;101081.84;5062519;28;69484;-39
2021/06/08 02:51:41;;;;;;;4.32;3.58;;;;;;;30.87;67.52;101075.81;5063578;27;65238;-39
2021/06/08 02:54:14;;;;;;;4.40;3.25;;;;;;;30.45;67.59;101013.06;5065592;27;69815;-40
2021/06/08 02:56:47;;;;;;;4.18;2.85;;;;;;;30.82;67.95;101075.63;5068355;28;65233;-39
2021/06/08 02:59:21;;;;;;;8.32;3.92;;;;;;;30.52;67.88;101032.81;5079336;27;69040;-39
2021/06/08 03:01:58;;;;;;;6.85;3.47;;;;;;;30.51;67.90;101028.47;5069998;27;66115;-40
2021/06/08 03:04:40;;;;;;;6.03;3.00;;;;;;;30.49;68.62;101025.13;5073263;28;70133;-41
2021/06/08 03:07:17;;;;;;;3.13;2.83;;;;;;;30.78;68.54;101082.50;5073554;27;65801;-38
2021/06/08 03:10:06;;;;;;;3.85;2.95;;;;;;;30.79;67.87;101090.41;5075179;27;70385;-40
2021/06/08 03:12:45;;;;;;;3.13;2.63;;;;;;;30.40;68.11;101026.41;5074341;27;65843;-39
2021/06/08 03:15:18;;;;;;;6.25;3.08;;;;;;;30.57;67.34;101056.56;5074362;27;68809;-40
2021/06/08 03:17:50;;;;;;;5.93;2.88;;;;;;;30.77;67.16;101091.66;5073766;27;64967;-40
2021/06/08 03:20:54;;;;;;;5.07;2.58;;;;;;;30.75;67.33;101078.31;5070057;28;69915;-40
2021/06/08 03:23:30;;;;;;;3.80;2.70;;;;;;;30.41;66.57;101023.47;5072651;28;66075;-42
2021/06/08 03:26:06;;;;;;;4.53;2.92;;;;;;;30.45;66.59;101029.28;5072857;28;69822;-41
2021/06/08 03:28:40;;;;;;;5.72;2.78;;;;;;;30.26;66.73;101004.81;5072659;28;66052;-41
2021/06/08 03:31:13;;;;;;;4.55;3.20;;;;;;;30.71;66.66;101068.97;5070949;27;69475;-40
2021/06/08 03:33:48;;;;;;;11.10;3.03;;;;;;;30.11;66.44;100973.59;5046135;28;66066;-41
2021/06/08 03:36:21;;;;;;;4.93;3.28;;;;;;;30.73;66.64;101075.03;5071811;28;70163;-41
2021/06/08 03:38:55;;;;;;;3.05;2.75;;;;;;;30.74;67.01;101068.56;5076160;27;65325;-43
2021/06/08 03:41:28;;;;;;;5.55;2.85;;;;;;;30.69;66.96;101058.34;5069220;27;69117;-41
2021/06/08 03:44:01;;;;;;;4.30;3.08;;;;;;;30.44;66.75;101011.41;5068164;27;66426;-42
2021/06/08 03:46:35;;;;;;;3.40;3.10;;;;;;;30.67;66.70;101044.22;5070460;28;70258;-40
2021/06/08 03:52:12;;;;;;;4.93;2.85;;;;;;;30.47;62.78;101048.88;4875587;29;70187;-36
2021/06/08 03:54:45;;;;;;;12.95;3.55;;;;;;;30.32;62.51;101045.59;4894667;29;66513;-38
2021/06/08 03:57:27;;;;;;;11.77;3.22;;;;;;;29.94;62.61;101016.50;4900251;29;68740;-37
2021/06/08 04:00:00;;;;;;;4.25;3.50;;;;;;;29.92;62.43;101032.09;4900599;28;65971;-39
2021/06/08 04:02:41;;;;;;;13.93;3.17;;;;;;;29.75;61.82;101024.41;4901080;28;69937;-36
2021/06/08 04:05:15;;;;;;;3.75;3.00;;;;;;;29.61;61.41;101028.16;4899724;29;66391;-37
2021/06/08 04:07:49;;;;;;;3.05;2.70;;;;;;;29.48;61.12;101017.34;4899062;29;70294;-37
2021/06/08 04:10:22;;;;;;;10.98;3.55;;;;;;;29.09;61.44;100960.38;4895631;29;65397;-36
2021/06/08 04:13:00;;;;;;;22.52;3.47;;;;;;;28.67;60.56;100918.34;4900285;29;70183;-36
2021/06/08 04:15:34;;;;;;;25.90;3.50;;;;;;;29.13;60.12;101009.41;4900676;29;66329;-35
2021/06/08 04:18:10;;;;;;;15.50;4.05;;;;;;;29.05;60.07;101002.31;4900888;29;70128;-36
2021/06/08 04:20:42;;;;;;;26.20;3.50;;;;;;;28.95;59.83;101002.72;4899987;28;66700;-36
2021/06/08 04:23:15;;;;;;;12.57;3.38;;;;;;;28.86;59.82;101003.09;4899118;29;69276;-36
2021/06/08 04:25:46;;;;;;;;;;;;;;;28.56;59.60;100991.81;4897834;29;66125;-37
2021/06/08 04:28:20;;;;;;;8.43;3.28;;;;;;;28.39;59.62;100943.53;4899743;29;68970;-36
2021/06/08 04:30:54;;;;;;;9.30;3.20;;;;;;;28.61;59.71;100978.50;4900844;28;66132;-37
2021/06/08 04:33:28;;;;;;;6.00;3.00;;;;;;;28.31;59.62;100935.63;4901135;28;70031;-36
2021/06/08 04:36:00;;;;;;;8.65;3.58;;;;;;;28.52;59.29;100978.69;4899661;28;65338;-38
2021/06/08 04:38:32;;;;;;;5.95;2.65;;;;;;;28.47;59.88;100959.59;4903046;29;70972;-36
2021/06/08 04:41:05;;;;;;;6.78;2.80;;;;;;;28.51;59.43;100968.94;4904239;28;67313;-38
2021/06/08 04:43:36;;;;;;;;;;;;;;;28.33;59.17;100965.91;4903743;29;69482;-37
2021/06/08 04:46:13;;;;;;;4.72;2.38;;;;;;;28.47;59.41;100948.81;4899818;29;65367;-36
2021/06/08 04:48:45;;;;;;;2.50;2.30;;;;;;;28.50;58.54;100959.19;4903598;29;70238;-35
2021/06/08 04:51:17;;;;;;;6.70;2.90;;;;;;;28.50;58.52;100951.09;4900686;28;65574;-35
2021/06/08 04:53:49;;;;;;;3.15;2.75;;;;;;;28.50;58.30;100952.94;4923531;28;69044;-41
2021/06/08 04:56:21;;;;;;;3.38;2.28;;;;;;;28.51;57.52;100946.53;4904728;28;66327;-35
2021/06/08 04:58:53;;;;;;;3.17;2.88;;;;;;;28.47;57.47;100942.53;4921604;28;69202;-35
2021/06/08 05:01:36;;;;;;;2.38;2.20;;;;;;;28.15;57.44;100885.56;4922708;28;65040;-36
2021/06/08 05:04:18;;;;;;;3.00;2.78;;;;;;;28.17;57.18;100891.59;4922507;28;69196;-36
2021/06/08 05:06:58;;;;;;;5.63;2.08;;;;;;;28.40;56.97;100917.41;4921560;28;65198;-36
2021/06/08 05:09:47;;;;;;;3.83;2.30;;;;;;;28.09;57.08;100872.06;4918472;28;70514;-36
2021/06/08 05:12:23;;;;;;;2.58;2.38;;;;;;;28.22;56.55;100897.22;4902576;28;66375;-36
2021/06/08 05:15:00;;;;;;;2.95;2.65;;;;;;;27.97;56.97;100861.84;4911007;28;70394;-34
2021/06/08 05:17:37;;;;;;;2.30;2.10;;;;;;;27.90;56.57;100852.88;4920941;28;66053;-35
2021/06/08 05:20:14;;;;;;;2.53;2.30;;;;;;;28.19;56.48;100910.25;4915636;28;70557;-34
2021/06/08 05:22:53;;;;;;;2.65;2.42;;;;;;;27.78;56.39;100838.31;4916165;28;66349;-34
2021/06/08 05:25:29;;;;;;;2.45;2.25;;;;;;;28.13;56.10;100905.66;4913672;28;70655;-35
2021/06/08 05:28:05;;;;;;;2.63;2.42;;;;;;;27.91;56.68;100873.41;4912075;28;67200;-36
2021/06/08 05:30:39;;;;;;;3.92;2.47;;;;;;;28.06;56.91;100901.09;4912130;28;70454;-36
2021/06/08 05:33:25;;;;;;;2.50;2.30;;;;;;;27.85;56.47;100863.44;4916372;28;65306;-35
2021/06/08 05:36:03;;;;;;;2.40;2.20;;;;;;;28.17;56.57;100893.47;4915984;28;69316;-35
2021/06/08 05:38:39;;;;;;;3.22;2.35;;;;;;;28.16;56.60;100894.47;4916196;28;66143;-35
2021/06/08 05:41:16;;;;;;;6.13;2.60;;;;;;;27.94;56.10;100848.75;4916036;28;69638;-35
2021/06/08 05:43:52;;;;;;;3.75;2.67;;;;;;;28.14;56.07;100880.34;4915536;28;66709;-35
2021/06/08 05:46:35;;;;;;;2.65;2.17;;;;;;;28.27;55.84;100905.50;4914980;28;70075;-33
2021/06/08 05:49:13;;;;;;;4.57;2.70;;;;;;;28.31;55.75;100903.25;4920027;28;65976;-37
2021/06/08 05:51:48;;;;;;;3.03;2.70;;;;;;;28.34;55.56;100897.44;4915423;28;70255;-35
2021/06/08 05:54:22;;;;;;;5.30;3.22;;;;;;;28.37;55.20;100894.34;4902855;28;66150;-35
2021/06/08 05:56:55;;;;;;;4.90;2.45;;;;;;;28.04;54.89;100843.00;4887771;28;68352;-35
2021/06/08 05:59:30;;;;;;;7.60;3.00;;;;;;;28.33;55.14;100878.75;4921617;28;66301;-34
2021/06/08 06:02:02;;;;;;;4.38;2.85;;;;;;;28.35;54.41;100877.53;4921152;28;71179;-34
2021/06/08 06:04:39;;;;;;;2.47;2.28;;;;;;;28.43;54.58;100885.47;4922319;28;66270;-34
2021/06/08 06:07:13;;;;;;;4.55;2.72;;;;;;;28.43;54.24;100877.38;4933817;28;69621;-34
2021/06/08 06:09:55;;;;;;;3.28;2.72;;;;;;;28.43;53.98;100885.47;4921990;28;66214;-33
2021/06/08 06:12:29;;;;;;;3.35;3.05;;;;;;;28.45;53.32;100882.56;4921135;28;70313;-34
2021/06/08 06:15:04;;;;;;;3.10;2.72;;;;;;;28.41;52.94;100882.09;4919732;28;66168;-34
2021/06/08 06:17:39;;;;;;;2.78;2.58;;;;;;;28.13;53.36;100836.38;4916155;28;70267;-34
2021/06/08 06:20:15;;;;;;;3.40;2.97;;;;;;;28.36;52.47;100863.03;4920521;28;66213;-34
2021/06/08 06:22:50;;;;;;;3.33;3.03;;;;;;;28.45;52.92;100867.22;4920922;28;69906;-34
2021/06/08 06:25:23;;;;;;;10.27;3.20;;;;;;;28.40;53.14;100858.88;4902045;28;66244;-34
2021/06/08 06:27:56;;;;;;;4.47;3.53;;;;;;;28.43;52.79;100853.09;4918545;28;69890;-35
2021/06/08 06:30:34;;;;;;;3.40;3.15;;;;;;;28.12;52.42;100806.94;4920817;28;65962;-35
2021/06/08 06:33:06;;;;;;;3.80;3.50;;;;;;;28.43;52.69;100858.47;4902998;28;71360;-35
2021/06/08 06:35:42;;;;;;;5.10;3.83;;;;;;;28.42;52.36;100855.97;4920889;28;65576;-35
2021/06/08 06:38:19;;;;;;;3.95;3.47;;;;;;;28.40;52.28;100842.69;4933984;28;68633;-33
2021/06/08 06:40:52;;;;;;;4.13;3.83;;;;;;;28.43;52.14;100847.69;4920791;28;66373;-34
2021/06/08 06:43:27;;;;;;;7.15;3.58;;;;;;;28.19;52.06;100799.66;4917876;28;69909;-34
2021/06/08 06:46:05;;;;;;;6.10;3.83;;;;;;;28.47;52.11;100840.88;4918542;28;66242;-35
2021/06/08 06:48:39;;;;;;;4.50;3.22;;;;;;;28.48;51.88;100845.22;4919798;28;70308;-33
2021/06/08 06:51:10;;;;;;;;;;;;;;;28.31;51.47;100845.78;4916171;28;65477;-34
2021/06/08 06:53:48;;;;;;;3.45;3.15;;;;;;;28.33;51.70;100820.22;4919066;28;69296;-35
2021/06/08 06:56:22;;;;;;;3.55;3.25;;;;;;;28.54;51.73;100842.75;4919090;28;66116;-35
2021/06/08 06:58:57;;;;;;;5.43;4.05;;;;;;;28.57;51.31;100853.13;4919119;28;69318;-35
2021/06/08 07:01:31;;;;;;;5.25;3.70;;;;;;;28.59;51.87;100848.34;4919176;28;66021;-36
2021/06/08 07:04:06;;;;;;;6.50;3.85;;;;;;;28.59;51.92;100845.66;4913938;28;70051;-35
2021/06/08 07:06:42;;;;;;;3.85;3.53;;;;;;;28.59;51.30;100841.09;4914387;28;65811;-36
2021/06/08 07:09:23;;;;;;;7.97;3.05;;;;;;;28.63;51.67;100831.53;4900598;28;70059;-35
2021/06/08 07:12:06;;;;;;;9.07;3.80;;;;;;;28.64;51.21;100829.66;4918262;28;65918;-35
2021/06/08 07:14:42;;;;;;;3.63;3.00;;;;;;;28.65;51.41;100817.84;4900764;28;70603;-35
2021/06/08 07:17:16;;;;;;;7.05;3.63;;;;;;;28.70;51.74;100807.25;4909269;28;66781;-35
2021/06/08 07:19:55;;;;;;;8.20;3.70;;;;;;;28.72;51.28;100797.91;4885867;28;71702;-37
2021/06/08 07:22:29;;;;;;;4.20;3.80;;;;;;;28.72;51.52;100797.06;4918291;28;65283;-46
2021/06/08 07:25:05;;;;;;;6.18;4.03;;;;;;;28.47;50.72;100745.56;4916208;28;68957;-36
2021/06/08 07:27:38;;;;;;;4.03;3.72;;;;;;;28.79;50.58;100792.50;4918669;28;65993;-37
2021/06/08 07:30:13;;;;;;;5.55;4.30;;;;;;;28.84;50.99;100790.00;4920609;28;69208;-36
2021/06/08 07:33:03;;;;;;;8.55;3.60;;;;;;;28.87;50.42;100792.28;4901962;28;65786;-35
2021/06/08 07:35:40;;;;;;;3.83;3.53;;;;;;;28.89;50.40;100782.13;4910323;28;69800;-34
2021/06/08 07:38:41;;;;;;;7.15;3.92;;;;;;;28.34;49.89;100681.63;4916544;28;65576;-35
2021/06/08 07:41:23;;;;;;;3.20;2.90;;;;;;;28.61;49.20;100708.63;4910079;28;68707;-37
2021/06/08 07:44:00;;;;;;;4.50;3.53;;;;;;;28.81;50.14;100735.63;4900862;28;65410;-40
2021/06/08 07:46:39;;;;;;;3.40;3.10;;;;;;;29.00;50.28;100758.19;4903680;28;69538;-35
2021/06/08 07:49:14;;;;;;;7.65;2.90;;;;;;;28.88;50.77;100737.25;4936003;28;65800;-36
2021/06/08 07:51:50;;;;;;;6.63;3.65;;;;;;;29.00;51.34;100744.69;4915068;28;70448;-34
2021/06/08 07:54:27;;;;;;;6.90;3.05;;;;;;;28.78;51.77;100695.50;4878744;28;66068;-35
2021/06/08 07:57:08;;;;;;;5.65;3.30;;;;;;;29.09;52.96;100724.56;4900444;28;69610;-34
2021/06/08 07:59:42;;;;;;;5.07;2.58;;;;;;;29.21;53.65;100725.56;4915473;28;66319;-37
2021/06/08 08:02:21;;;;;;;10.95;2.53;;;;;;;28.97;54.34;100667.63;4931347;28;70524;-34
2021/06/08 08:04:57;;;;;;;3.83;2.72;;;;;;;29.31;54.08;100704.34;4933480;28;66114;-34
2021/06/08 08:07:31;;;;;;;3.13;2.83;;;;;;;29.39;54.69;100701.41;4937702;28;70637;-34
2021/06/08 08:10:04;;;;;;;8.85;2.90;;;;;;;29.50;54.74;100696.34;4905200;28;66194;-33
2021/06/08 08:12:39;;;;;;;5.93;2.50;;;;;;;29.47;56.13;100675.97;4919259;28;70533;-33
2021/06/08 08:15:13;;;;;;;4.70;2.30;;;;;;;29.67;56.05;100708.38;4937698;28;66183;-34
2021/06/08 08:17:49;;;;;;;7.68;2.40;;;;;;;29.44;56.51;100648.56;4922844;28;69110;-35
2021/06/08 08:20:45;;;;;;;2.63;2.38;;;;;;;29.74;57.40;100687.50;4922859;28;66248;-34
2021/06/08 08:23:18;;;;;;;10.93;2.72;;;;;;;29.83;56.88;100685.38;4913740;28;68709;-34
2021/06/08 08:25:50;;;;;;;3.45;2.20;;;;;;;29.90;57.78;100696.16;4923393;28;66199;-35
2021/06/08 08:28:26;;;;;;;21.80;2.88;;;;;;;29.97;57.50;100697.75;4923615;28;69868;-38
2021/06/08 08:31:09;;;;;;;12.93;3.55;;;;;;;30.07;59.69;100702.69;4921369;28;66153;-37
2021/06/08 08:33:45;;;;;;;3.55;3.25;;;;;;;29.88;59.50;100665.81;4916291;28;69294;-36
2021/06/08 08:36:17;;;;;;;4.78;3.58;;;;;;;30.19;59.71;100717.16;4917993;28;65793;-36
2021/06/08 08:38:49;;;;;;;9.85;3.60;;;;;;;30.22;59.71;100710.53;4917923;28;70039;-35
2021/06/08 08:41:22;;;;;;;4.40;3.30;;;;;;;30.20;59.25;100713.44;4916124;28;65067;-37
2021/06/08 08:43:54;;;;;;;10.93;3.72;;;;;;;30.31;59.31;100724.59;4936283;28;69340;-38
2021/06/08 08:46:26;;;;;;;;;;;;;;;30.15;61.27;100724.06;4910847;28;65998;-39
2021/06/08 08:49:00;;;;;;;4.78;2.80;;;;;;;30.37;59.92;100726.41;4921996;28;69997;-36
2021/06/08 08:51:34;;;;;;;4.68;3.28;;;;;;;30.35;59.30;100715.00;4922028;28;68464;-36
2021/06/08 08:54:06;;;;;;;3.90;2.80;;;;;;;30.43;59.47;100717.44;4921731;28;70061;-39
2021/06/08 08:56:42;;;;;;;4.60;2.88;;;;;;;30.45;58.94;100720.72;4914478;28;65418;-37
2021/06/08 08:59:19;;;;;;;3.95;3.08;;;;;;;30.51;60.03;100728.00;4919606;28;70109;-35
2021/06/08 09:01:52;;;;;;;3.50;3.20;;;;;;;30.55;59.41;100742.72;4917964;28;66001;-35
2021/06/08 09:04:26;;;;;;;4.30;3.75;;;;;;;30.44;59.37;100705.56;4923391;28;69880;-37
2021/06/08 09:06:58;;;;;;;5.82;3.92;;;;;;;30.61;59.42;100735.59;4922623;28;66381;-36
2021/06/08 09:09:34;;;;;;;6.72;3.83;;;;;;;30.66;59.92;100733.88;4922581;28;69331;-36
2021/06/08 09:12:05;;;;;;;;;;;;;;;30.41;61.30;100735.78;4918472;28;66022;-35
2021/06/08 09:14:39;;;;;;;8.13;4.47;;;;;;;30.59;60.24;100738.53;4922084;28;70114;-35
2021/06/08 09:17:15;;;;;;;4.50;4.10;;;;;;;30.58;60.04;100720.63;4920156;28;65908;-36
2021/06/08 09:19:48;;;;;;;5.55;4.70;;;;;;;30.65;60.24;100731.41;4920332;28;69453;-36
2021/06/08 09:22:22;;;;;;;7.82;4.78;;;;;;;30.62;59.89;100727.28;4924388;28;66174;-35
2021/06/08 09:24:55;;;;;;;11.77;5.10;;;;;;;30.53;60.00;100717.75;4920090;28;69570;-35
2021/06/08 09:27:31;;;;;;;11.50;5.45;;;;;;;30.58;60.69;100731.44;4907660;28;65374;-35
2021/06/08 09:30:14;;;;;;;6.43;4.90;;;;;;;30.42;60.13;100723.88;4923392;28;69881;-35
2021/06/08 09:32:47;;;;;;;7.28;5.70;;;;;;;30.53;59.92;100733.16;4915506;28;66166;-34
2021/06/08 09:35:21;;;;;;;20.48;5.68;;;;;;;30.49;60.05;100727.38;4922111;28;71110;-34
2021/06/08 09:37:54;;;;;;;11.48;6.32;;;;;;;30.47;59.95;100732.19;4903596;28;66052;-33
2021/06/08 09:40:28;;;;;;;11.05;6.68;;;;;;;30.17;59.80;100686.81;4919106;28;70067;-34
2021/06/08 09:43:11;;;;;;;16.90;6.95;;;;;;;30.21;60.52;100689.91;4918821;28;66276;-33
2021/06/08 09:45:52;;;;;;;11.85;6.55;;;;;;;29.91;59.80;100638.31;4914602;28;69211;-33
2021/06/08 09:48:24;;;;;;;11.55;6.93;;;;;;;30.47;60.40;100726.75;4908811;28;65272;-33
2021/06/08 09:50:55;;;;;;;6.80;6.10;;;;;;;30.51;60.21;100717.16;4918761;28;70001;-35
2021/06/08 09:53:30;;;;;;;8.73;6.65;;;;;;;30.55;60.83;100715.66;4898809;28;66164;-34
2021/06/08 09:56:06;;;;;;;10.57;6.95;;;;;;;30.38;61.10;100682.09;4922385;28;70068;-34
2021/06/08 09:58:51;;;;;;;9.60;6.10;;;;;;;30.61;60.98;100708.53;4921558;28;65589;-33
2021/06/08 10:01:30;;;;;;;11.25;7.03;;;;;;;30.73;61.00;100729.25;4916536;28;68872;-33
2021/06/08 10:04:06;;;;;;;10.63;6.82;;;;;;;30.81;60.44;100725.44;4921952;28;66266;-34
2021/06/08 10:06:41;;;;;;;14.98;7.20;;;;;;;30.92;60.70;100726.56;4925772;28;68986;-32
2021/06/08 10:09:16;;;;;;;14.48;6.50;;;;;;;30.79;60.49;100699.63;4918673;28;66197;-34
2021/06/08 10:12:03;;;;;;;15.48;6.55;;;;;;;30.67;61.11;100683.25;4921051;28;70665;-35
2021/06/08 10:14:40;;;;;;;14.52;6.20;;;;;;;30.77;60.51;100704.41;4919230;28;65270;-35
2021/06/08 10:17:12;;;;;;;5.82;5.32;;;;;;;30.93;60.44;100739.09;4919755;28;70067;-35
2021/06/08 10:19:45;;;;;;;10.13;5.68;;;;;;;30.85;59.75;100742.91;4919309;28;66174;-35
2021/06/08 10:22:32;;;;;;;9.63;6.25;;;;;;;30.69;60.37;100743.44;4920120;28;70468;-35
2021/06/08 10:25:05;;;;;;;10.40;5.40;;;;;;;30.78;59.98;100752.94;4902599;28;65488;-34
2021/06/08 10:27:38;;;;;;;11.38;5.35;;;;;;;30.73;60.68;100756.31;4915751;28;69474;-33
2021/06/08 10:30:11;;;;;;;9.07;5.35;;;;;;;30.72;60.34;100760.06;4919848;28;65979;-34
2021/06/08 10:32:42;;;;;;;10.85;5.22;;;;;;;30.73;59.97;100767.16;4904143;28;69872;-36
2021/06/08 10:35:15;;;;;;;5.90;4.57;;;;;;;30.62;60.84;100757.06;4900226;28;65989;-36
2021/06/08 10:37:46;;;;;;;;;;;;;;;30.45;61.38;100764.03;4915140;28;70256;-37
2021/06/08 10:40:20;;;;;;;8.35;6.20;;;;;;;30.49;60.29;100749.03;4898769;28;64651;-37
2021/06/08 10:42:51;;;;;;;7.40;6.80;;;;;;;30.60;60.22;100761.84;4916794;28;69247;-36
2021/06/08 10:45:36;;;;;;;8.77;7.97;;;;;;;30.40;60.50;100745.78;4901784;28;65079;-38
2021/06/08 10:48:17;;;;;;;10.93;8.35;;;;;;;30.49;61.39;100771.50;4919596;28;69216;-36
2021/06/08 10:50:50;;;;;;;14.73;8.43;;;;;;;30.46;61.30;100779.25;4920389;28;67049;-37
2021/06/08 10:53:35;;;;;;;8.10;7.30;;;;;;;29.90;61.46;100688.06;4921645;28;70111;-37
2021/06/08 10:56:27;;;;;;;10.48;6.55;;;;;;;30.34;61.53;100783.69;4919861;28;66561;-37
2021/06/08 10:59:02;;;;;;;11.63;7.17;;;;;;;30.36;61.14;100781.59;4912275;28;69922;-37
2021/06/08 11:01:41;;;;;;;12.23;7.75;;;;;;;30.35;61.40;100774.53;4921203;28;65946;-35
2021/06/08 11:04:28;;;;;;;10.40;7.88;;;;;;;29.76;61.42;100693.53;4895482;28;68769;-37
2021/06/08 11:07:04;;;;;;;8.45;6.97;;;;;;;30.27;61.55;100778.34;4935535;28;65974;-37
2021/06/08 11:09:37;;;;;;;9.48;7.30;;;;;;;30.27;61.12;100781.88;4919578;28;69941;-37
2021/06/08 11:12:08;;;;;;;12.27;7.88;;;;;;;30.26;61.61;100776.69;4919428;28;65275;-37
2021/06/08 11:14:45;;;;;;;11.15;8.13;;;;;;;30.23;61.27;100777.97;4910585;28;69273;-37
2021/06/08 11:17:38;;;;;;;14.05;6.80;;;;;;;30.14;62.28;100784.63;4918379;28;66025;-38
2021/06/08 11:20:20;;;;;;;14.82;6.35;;;;;;;30.16;61.57;100771.72;4919826;28;69032;-38
2021/06/08 11:22:58;;;;;;;9.05;7.25;;;;;;;30.22;62.40;100776.28;4921179;28;66076;-35
2021/06/08 11:25:41;;;;;;;9.25;5.70;;;;;;;29.68;61.54;100687.56;4896943;28;69697;-35
2021/06/08 11:28:17;;;;;;;20.95;6.75;;;;;;;30.19;62.28;100775.88;4915024;28;65307;-36
2021/06/08 11:31:01;;;;;;;9.18;7.15;;;;;;;30.16;62.31;100771.72;4915658;28;69769;-36
2021/06/08 11:33:39;;;;;;;9.73;7.07;;;;;;;30.03;62.39;100760.97;4913986;28;66647;-35
2021/06/08 11:36:20;;;;;;;9.70;7.75;;;;;;;30.13;62.84;100782.16;4915329;28;69763;-35
2021/06/08 11:38:54;;;;;;;7.35;6.63;;;;;;;30.17;62.04;100783.34;4920739;28;66015;-34
2021/06/08 11:41:26;;;;;;;9.25;8.38;;;;;;;30.17;62.55;100794.19;4922063;28;69834;-35
2021/06/08 11:44:00;;;;;;;11.80;8.60;;;;;;;30.10;62.47;100788.81;4922084;28;65833;-35
2021/06/08 11:46:35;;;;;;;15.30;8.32;;;;;;;30.08;62.62;100784.69;4923043;28;70100;-35
2021/06/08 11:49:14;;;;;;;9.52;8.60;;;;;;;30.10;62.07;100788.81;4924282;28;66310;-36
2021/06/08 11:51:52;;;;;;;10.77;9.65;;;;;;;30.10;62.77;100785.28;4922588;28;70576;-34
2021/06/08 11:54:27;;;;;;;24.30;10.45;;;;;;;30.18;62.43;100802.09;4922391;28;66193;-35
2021/06/08 11:57:05;;;;;;;16.27;10.25;;;;;;;30.07;62.96;100794.66;4920893;28;69084;-33
2021/06/08 11:59:47;;;;;;;12.80;10.55;;;;;;;30.12;62.60;100808.38;4921805;28;65313;-36
2021/06/08 12:02:33;;;;;;;11.52;10.48;;;;;;;30.12;62.95;100812.97;4924148;28;69723;-36
2021/06/08 12:05:13;;;;;;;21.50;11.00;;;;;;;29.81;63.12;100769.44;4923964;28;66117;-37
2021/06/08 12:07:54;;;;;;;14.98;10.88;;;;;;;29.87;63.12;100773.16;4895552;28;69213;-40